createdAt,value
2017-07-26T00:00:30.311Z,8.43
2017-07-26T00:02:58.602Z,6.85
2017-07-26T00:05:26.126Z,7.53
2017-07-26T00:07:53.637Z,6.90
2017-07-26T00:10:21.157Z,6.40
2017-07-26T00:12:49.476Z,6.87
2017-07-26T00:15:16.958Z,6.07
2017-07-26T00:17:44.452Z,6.47
2017-07-26T00:20:11.964Z,7.60
2017-07-26T00:22:39.473Z,6.80
2017-07-26T00:25:07.724Z,6.55
2017-07-26T00:27:35.231Z,6.28
2017-07-26T00:30:02.726Z,6.25
2017-07-26T00:32:30.234Z,7.78
2017-07-26T00:34:57.784Z,10.52
2017-07-26T00:37:26.092Z,7.05
2017-07-26T00:39:53.616Z,7.45
2017-07-26T00:42:21.119Z,8.02
2017-07-26T00:44:48.620Z,7.80
2017-07-26T00:47:16.147Z,8.93
2017-07-26T00:49:43.699Z,7.90
2017-07-26T00:52:11.212Z,7.85
2017-07-26T00:54:38.691Z,7.53
2017-07-26T00:57:06.213Z,12.32
2017-07-26T00:59:33.722Z,7.03
2017-07-26T01:02:01.224Z,7.80
2017-07-26T01:04:28.738Z,8.52
2017-07-26T01:06:56.278Z,8.90
2017-07-26T01:09:23.763Z,8.80
2017-07-26T01:11:51.249Z,8.93
2017-07-26T01:14:18.744Z,8.10
2017-07-26T01:16:47.032Z,8.20
2017-07-26T01:19:15.315Z,10.05
2017-07-26T01:21:42.809Z,9.32
2017-07-26T01:24:10.287Z,9.65
2017-07-26T01:26:37.781Z,9.00
2017-07-26T01:29:05.296Z,9.18
2017-07-26T01:31:32.814Z,10.20
2017-07-26T01:34:00.325Z,10.75
2017-07-26T01:36:27.851Z,10.02
2017-07-26T01:38:55.685Z,9.80
2017-07-26T01:41:23.174Z,9.10
2017-07-26T01:43:51.017Z,8.77
2017-07-26T01:46:18.520Z,8.68
2017-07-26T01:48:46.001Z,8.57
2017-07-26T01:51:13.530Z,8.38
2017-07-26T01:53:41.028Z,9.15
2017-07-26T01:56:08.544Z,11.15
2017-07-26T01:58:36.052Z,11.40
2017-07-26T02:01:04.338Z,11.25
2017-07-26T02:03:32.682Z,12.70
2017-07-26T02:06:00.227Z,11.07
2017-07-26T02:08:27.877Z,12.98
2017-07-26T02:10:55.402Z,11.48
2017-07-26T02:13:22.960Z,13.75
2017-07-26T02:15:50.472Z,12.00
2017-07-26T02:18:17.968Z,14.48
2017-07-26T02:20:45.761Z,12.82
2017-07-26T02:23:13.275Z,14.18
2017-07-26T02:25:40.783Z,12.80
2017-07-26T02:28:08.293Z,13.75
2017-07-26T02:30:36.431Z,15.25
2017-07-26T02:33:04.298Z,12.30
2017-07-26T02:35:31.826Z,13.13
2017-07-26T02:38:00.099Z,12.90
2017-07-26T02:40:28.407Z,13.23
2017-07-26T02:42:55.971Z,11.85
2017-07-26T02:45:23.478Z,13.65
2017-07-26T02:47:50.972Z,13.10
2017-07-26T02:50:18.522Z,13.90
2017-07-26T02:52:46.026Z,12.52
2017-07-26T02:55:13.543Z,12.00
2017-07-26T02:57:41.805Z,12.80
2017-07-26T03:00:10.078Z,13.15
2017-07-26T03:02:37.584Z,12.77
2017-07-26T03:05:05.095Z,15.27
2017-07-26T03:07:32.596Z,14.77
2017-07-26T03:10:00.100Z,12.18
2017-07-26T03:12:27.587Z,14.02
2017-07-26T03:14:55.897Z,13.30
2017-07-26T03:17:23.409Z,13.35
2017-07-26T03:19:50.954Z,13.55
2017-07-26T03:22:18.471Z,13.68
2017-07-26T03:24:45.964Z,14.43
2017-07-26T03:27:13.455Z,13.82
2017-07-26T03:29:40.957Z,12.85
2017-07-26T03:32:08.455Z,13.55
2017-07-26T03:34:35.964Z,14.57
2017-07-26T03:37:03.482Z,14.30
2017-07-26T03:39:31.009Z,13.90
2017-07-26T03:41:58.515Z,13.35
2017-07-26T03:44:26.782Z,14.82
2017-07-26T03:46:55.167Z,14.43
2017-07-26T03:49:22.696Z,14.23
2017-07-26T03:51:50.238Z,14.02
2017-07-26T03:54:17.756Z,13.00
2017-07-26T03:56:45.274Z,13.32
2017-07-26T03:59:12.759Z,16.30
2017-07-26T04:01:41.020Z,13.15
2017-07-26T04:04:08.548Z,13.43
2017-07-26T04:06:36.038Z,14.80
2017-07-26T04:09:03.588Z,13.90
2017-07-26T04:11:31.121Z,13.48
2017-07-26T04:13:58.611Z,14.82
2017-07-26T04:16:26.121Z,15.23
2017-07-26T04:18:53.651Z,18.87
2017-07-26T04:21:21.912Z,15.30
2017-07-26T04:23:49.422Z,13.25
2017-07-26T04:26:17.036Z,12.88
2017-07-26T04:28:44.571Z,11.40
2017-07-26T04:31:12.103Z,11.63
2017-07-26T04:33:39.628Z,12.77
2017-07-26T04:36:07.956Z,12.20
2017-07-26T04:38:35.466Z,12.37
2017-07-26T04:41:02.965Z,9.93
2017-07-26T04:43:30.469Z,10.23
2017-07-26T04:45:58.052Z,12.50
2017-07-26T04:48:25.561Z,9.98
2017-07-26T04:50:53.071Z,9.80
2017-07-26T04:53:21.329Z,10.10
2017-07-26T04:55:49.664Z,10.68
2017-07-26T04:58:17.183Z,8.40
2017-07-26T05:00:44.669Z,9.75
2017-07-26T05:03:12.536Z,7.37
2017-07-26T05:05:40.150Z,8.40
2017-07-26T05:08:07.640Z,9.15
2017-07-26T05:10:35.161Z,8.05
2017-07-26T05:13:02.658Z,9.05
2017-07-26T05:15:30.139Z,9.15
2017-07-26T05:17:57.643Z,8.50
2017-07-26T05:20:25.154Z,9.30
2017-07-26T05:22:52.641Z,9.68
2017-07-26T05:25:20.153Z,11.60
2017-07-26T05:27:47.730Z,12.88
2017-07-26T05:30:15.283Z,12.27
2017-07-26T05:32:42.804Z,15.90
2017-07-26T05:35:10.320Z,15.43
2017-07-26T05:37:37.852Z,16.75
2017-07-26T05:40:05.356Z,15.02
2017-07-26T05:42:32.854Z,18.40
2017-07-26T05:45:00.371Z,16.62
2017-07-26T05:47:27.857Z,14.82
2017-07-26T05:49:56.150Z,13.65
2017-07-26T05:52:24.426Z,13.82
2017-07-26T05:54:52.704Z,13.07
2017-07-26T05:57:21.003Z,12.93
2017-07-26T05:59:48.516Z,12.27
2017-07-26T06:02:16.035Z,10.00
2017-07-26T06:04:43.539Z,10.98
2017-07-26T06:07:11.050Z,7.95
2017-07-26T06:09:38.615Z,8.48
2017-07-26T06:12:06.230Z,6.93
2017-07-26T06:14:33.709Z,6.28
2017-07-26T06:17:01.247Z,8.57
2017-07-26T06:19:29.522Z,5.82
2017-07-26T06:21:57.784Z,5.00
2017-07-26T06:24:25.290Z,4.75
2017-07-26T06:26:52.804Z,5.10
2017-07-26T06:29:20.301Z,6.05
2017-07-26T06:31:47.834Z,6.20
2017-07-26T06:34:16.103Z,6.32
2017-07-26T06:36:44.385Z,6.45
2017-07-26T06:39:11.902Z,6.85
2017-07-26T06:41:39.394Z,7.30
2017-07-26T06:44:07.016Z,8.88
2017-07-26T06:46:34.497Z,5.87
2017-07-26T06:49:02.038Z,5.40
2017-07-26T06:51:29.543Z,3.50
2017-07-26T06:53:57.087Z,2.83
2017-07-26T06:56:24.634Z,3.97
2017-07-26T06:58:52.137Z,2.85
2017-07-26T07:01:20.397Z,3.85
2017-07-26T07:03:47.945Z,1.58
2017-07-26T07:06:15.497Z,1.95
2017-07-26T07:08:42.991Z,2.10
2017-07-26T07:11:11.238Z,1.30
2017-07-26T07:13:38.776Z,1.45
2017-07-26T07:16:06.295Z,1.80
2017-07-26T07:18:33.799Z,1.60
2017-07-26T07:21:01.298Z,1.70
2017-07-26T07:23:29.544Z,1.62
2017-07-26T07:25:57.051Z,1.85
2017-07-26T07:28:24.560Z,1.30
2017-07-26T07:30:52.070Z,1.20
2017-07-26T07:33:19.584Z,1.10
2017-07-26T07:35:47.080Z,1.10
2017-07-26T07:38:15.351Z,2.53
2017-07-26T07:40:42.868Z,1.92
2017-07-26T07:43:10.344Z,2.30
2017-07-26T07:45:37.858Z,2.70
2017-07-26T07:48:05.353Z,1.20
2017-07-26T07:50:32.981Z,2.70
2017-07-26T07:53:00.497Z,1.55
2017-07-26T07:55:28.770Z,1.10
2017-07-26T07:57:56.302Z,1.65
2017-07-26T08:00:23.802Z,1.50
2017-07-26T08:02:51.361Z,1.85
2017-07-26T08:05:19.610Z,1.25
2017-07-26T08:07:47.086Z,1.40
2017-07-26T08:10:15.367Z,4.15
2017-07-26T08:12:43.641Z,1.58
2017-07-26T08:15:11.153Z,2.62
2017-07-26T08:17:38.637Z,1.50
2017-07-26T08:20:06.191Z,1.45
2017-07-26T08:22:34.489Z,1.20
2017-07-26T08:25:01.982Z,1.35
2017-07-26T08:27:29.510Z,1.58
2017-07-26T08:29:57.006Z,1.40
2017-07-26T08:32:24.621Z,1.30
2017-07-26T08:34:52.186Z,1.20
2017-07-26T08:37:19.689Z,2.22
2017-07-26T08:39:47.211Z,1.27
2017-07-26T08:42:14.752Z,2.10
2017-07-26T08:44:42.284Z,3.75
2017-07-26T08:47:09.800Z,1.85
2017-07-26T08:49:37.324Z,1.95
2017-07-26T08:52:04.835Z,2.15
2017-07-26T08:54:32.329Z,1.70
2017-07-26T08:56:59.846Z,1.83
2017-07-26T08:59:27.394Z,3.47
2017-07-26T09:01:54.920Z,1.45
2017-07-26T09:04:22.411Z,1.48
2017-07-26T09:06:49.921Z,3.15
2017-07-26T09:09:17.399Z,3.42
2017-07-26T09:11:44.941Z,3.33
2017-07-26T09:14:12.470Z,2.20
2017-07-26T09:16:39.984Z,1.65
2017-07-26T09:19:07.513Z,1.50
2017-07-26T09:21:35.017Z,1.92
2017-07-26T09:24:02.535Z,1.70
2017-07-26T09:26:30.023Z,2.28
2017-07-26T09:28:57.532Z,2.20
2017-07-26T09:31:25.078Z,1.85
2017-07-26T09:33:52.583Z,2.97
2017-07-26T09:36:20.079Z,2.87
2017-07-26T09:38:48.365Z,2.03
2017-07-26T09:41:16.634Z,2.10
2017-07-26T09:43:44.987Z,4.12
2017-07-26T09:46:12.504Z,2.05
2017-07-26T09:48:39.995Z,1.73
2017-07-26T09:51:07.533Z,1.40
2017-07-26T09:53:35.067Z,3.87
2017-07-26T09:56:02.561Z,1.70
2017-07-26T09:58:30.103Z,1.60
2017-07-26T10:00:57.628Z,2.15
2017-07-26T10:03:25.180Z,3.35
2017-07-26T10:05:52.739Z,2.47
2017-07-26T10:08:20.228Z,1.87
2017-07-26T10:10:47.764Z,1.98
2017-07-26T10:13:16.050Z,2.25
2017-07-26T10:15:44.334Z,1.75
2017-07-26T10:18:11.847Z,2.25
2017-07-26T10:20:39.356Z,3.37
2017-07-26T10:23:06.875Z,2.72
2017-07-26T10:25:34.370Z,2.60
2017-07-26T10:28:01.876Z,1.95
2017-07-26T10:30:29.378Z,1.65
2017-07-26T10:32:56.916Z,1.70
2017-07-26T10:35:24.393Z,1.70
2017-07-26T10:37:51.995Z,2.25
2017-07-26T10:40:19.496Z,1.80
2017-07-26T10:42:47.010Z,2.12
2017-07-26T10:45:14.522Z,1.40
2017-07-26T10:47:42.035Z,3.37
2017-07-26T10:50:10.100Z,2.75
2017-07-26T10:52:37.593Z,1.73
2017-07-26T10:55:05.117Z,1.92
2017-07-26T10:57:32.716Z,1.87
2017-07-26T11:00:00.236Z,2.20
2017-07-26T11:02:27.720Z,1.75
2017-07-26T11:04:55.242Z,2.25
2017-07-26T11:07:22.751Z,2.40
2017-07-26T11:09:50.272Z,2.37
2017-07-26T11:12:17.749Z,2.00
2017-07-26T11:14:45.250Z,2.03
2017-07-26T11:17:12.782Z,2.95
2017-07-26T11:19:40.287Z,3.58
2017-07-26T11:22:07.840Z,2.30
2017-07-26T11:24:35.390Z,1.75
2017-07-26T11:27:03.733Z,2.50
2017-07-26T11:29:31.470Z,2.62
2017-07-26T11:31:58.979Z,2.62
2017-07-26T11:34:26.526Z,2.87
2017-07-26T11:36:54.038Z,2.60
2017-07-26T11:39:21.525Z,3.80
2017-07-26T11:41:49.809Z,2.67
2017-07-26T11:44:17.296Z,3.00
2017-07-26T11:46:44.778Z,3.03
2017-07-26T11:49:12.375Z,3.15
2017-07-26T11:51:39.858Z,3.45
2017-07-26T11:54:07.335Z,3.53
2017-07-26T11:56:34.818Z,3.90
2017-07-26T11:59:02.297Z,3.10
2017-07-26T12:01:30.096Z,4.43
2017-07-26T12:03:57.641Z,3.60
2017-07-26T12:06:25.131Z,3.30
2017-07-26T12:08:52.636Z,3.97
2017-07-26T12:11:20.161Z,5.47
2017-07-26T12:13:48.476Z,3.97
2017-07-26T12:16:15.976Z,4.15
2017-07-26T12:18:43.482Z,3.17
2017-07-26T12:21:10.969Z,6.00
2017-07-26T12:23:38.510Z,4.22
2017-07-26T12:26:05.992Z,4.72
2017-07-26T12:28:33.540Z,4.72
2017-07-26T12:31:01.348Z,4.90
2017-07-26T12:33:28.855Z,4.35
2017-07-26T12:35:56.345Z,4.75
2017-07-26T12:38:24.795Z,4.72
2017-07-26T12:40:52.381Z,5.18
2017-07-26T12:43:20.076Z,3.97
2017-07-26T12:45:47.622Z,4.32
2017-07-26T12:48:15.111Z,4.37
2017-07-26T12:50:42.649Z,4.15
2017-07-26T12:53:10.198Z,4.00
2017-07-26T12:55:37.696Z,4.45
2017-07-26T12:58:06.127Z,4.60
2017-07-26T13:00:33.648Z,4.07
2017-07-26T13:03:01.166Z,4.05
2017-07-26T13:05:28.679Z,4.60
2017-07-26T13:07:56.166Z,4.40
2017-07-26T13:10:23.726Z,4.87
2017-07-26T13:12:51.246Z,5.28
2017-07-26T13:15:18.934Z,5.55
2017-07-26T13:17:46.419Z,4.62
2017-07-26T13:20:14.407Z,4.87
2017-07-26T13:22:41.961Z,4.93
2017-07-26T13:25:10.273Z,4.50
2017-07-26T13:27:37.777Z,4.45
2017-07-26T13:30:06.094Z,4.82
2017-07-26T13:32:33.595Z,5.57
2017-07-26T13:35:01.152Z,5.70
2017-07-26T13:37:28.697Z,5.12
2017-07-26T13:39:56.275Z,5.53
2017-07-26T13:42:23.773Z,5.43
2017-07-26T13:44:51.312Z,5.82
2017-07-26T13:47:18.852Z,6.22
2017-07-26T13:49:46.361Z,7.25
2017-07-26T13:52:15.976Z,6.50
2017-07-26T13:54:44.259Z,5.90
2017-07-26T13:57:11.769Z,6.85
2017-07-26T13:59:39.254Z,7.40
2017-07-26T14:02:06.775Z,6.25
2017-07-26T14:04:34.286Z,7.10
2017-07-26T14:07:02.745Z,6.53
2017-07-26T14:09:31.077Z,8.85
2017-07-26T14:11:58.585Z,7.87
2017-07-26T14:14:26.087Z,7.45
2017-07-26T14:16:53.594Z,8.07
2017-07-26T14:19:21.894Z,7.90
2017-07-26T14:21:50.151Z,9.27
2017-07-26T14:24:17.761Z,7.75
2017-07-26T14:26:45.244Z,8.43
2017-07-26T14:29:12.780Z,7.70
2017-07-26T14:31:40.286Z,9.77
2017-07-26T14:34:07.862Z,9.65
2017-07-26T14:36:36.112Z,8.55
2017-07-26T14:39:03.621Z,9.63
2017-07-26T14:41:31.131Z,10.63
2017-07-26T14:43:58.625Z,9.35
2017-07-26T14:46:26.143Z,9.25
2017-07-26T14:48:53.659Z,8.07
2017-07-26T14:51:21.179Z,9.48
2017-07-26T14:53:48.721Z,11.30
2017-07-26T14:56:16.263Z,9.50
2017-07-26T14:58:43.815Z,9.85
2017-07-26T15:01:11.324Z,9.30
2017-07-26T15:03:38.827Z,10.35
2017-07-26T15:06:06.330Z,11.02
2017-07-26T15:08:34.227Z,8.70
2017-07-26T15:11:01.727Z,10.52
2017-07-26T15:13:29.247Z,10.63
2017-07-26T15:15:56.772Z,10.73
2017-07-26T15:18:24.280Z,11.52
2017-07-26T15:20:51.866Z,9.10
2017-07-26T15:23:19.383Z,9.15
2017-07-26T15:25:46.905Z,8.50
2017-07-26T15:28:14.767Z,10.52
2017-07-26T15:30:42.317Z,9.82
2017-07-26T15:33:10.406Z,10.55
2017-07-26T15:35:37.937Z,10.00
2017-07-26T15:38:05.474Z,8.40
2017-07-26T15:40:32.965Z,8.25
2017-07-26T15:43:00.458Z,8.88
2017-07-26T15:45:27.970Z,8.05
2017-07-26T15:47:55.493Z,8.60
2017-07-26T15:50:23.805Z,8.07
2017-07-26T15:52:51.309Z,7.82
2017-07-26T15:55:18.867Z,8.45
2017-07-26T15:57:46.381Z,10.00
2017-07-26T16:00:13.886Z,9.88
2017-07-26T16:02:41.377Z,9.23
2017-07-26T16:05:08.868Z,8.60
2017-07-26T16:07:36.832Z,9.60
2017-07-26T16:10:04.330Z,9.63
2017-07-26T16:12:31.959Z,9.90
2017-07-26T16:14:59.484Z,9.65
2017-07-26T16:17:26.994Z,11.38
2017-07-26T16:19:54.514Z,11.55
2017-07-26T16:22:22.048Z,11.38
2017-07-26T16:24:49.598Z,10.02
2017-07-26T16:27:17.087Z,8.32
2017-07-26T16:29:45.375Z,11.63
2017-07-26T16:32:12.906Z,10.15
2017-07-26T16:34:40.470Z,12.40
2017-07-26T16:37:08.749Z,10.02
2017-07-26T16:39:37.001Z,10.13
2017-07-26T16:42:04.493Z,8.52
2017-07-26T16:44:32.795Z,10.95
2017-07-26T16:47:01.579Z,9.23
2017-07-26T16:49:29.077Z,7.10
2017-07-26T16:51:56.585Z,8.25
2017-07-26T16:54:24.099Z,8.48
2017-07-26T16:56:51.595Z,8.60
2017-07-26T16:59:19.291Z,9.32
2017-07-26T17:01:46.774Z,9.80
2017-07-26T17:04:14.336Z,9.20
2017-07-26T17:06:41.841Z,9.75
2017-07-26T17:09:09.370Z,11.12
2017-07-26T17:11:36.890Z,9.13
2017-07-26T17:14:04.386Z,9.68
2017-07-26T17:16:31.904Z,9.25
2017-07-26T17:18:59.424Z,8.80
2017-07-26T17:21:27.785Z,10.18
2017-07-26T17:23:55.358Z,11.43
2017-07-26T17:26:23.658Z,9.00
2017-07-26T17:28:51.197Z,10.50
2017-07-26T17:31:19.635Z,12.93
2017-07-26T17:33:47.180Z,11.60
2017-07-26T17:36:14.696Z,10.93
2017-07-26T17:38:42.958Z,10.68
2017-07-26T17:41:10.496Z,8.13
2017-07-26T17:43:38.037Z,7.97
2017-07-26T17:46:05.856Z,8.85
2017-07-26T17:48:33.353Z,7.75
2017-07-26T17:51:00.878Z,7.25
2017-07-26T17:53:28.417Z,7.43
2017-07-26T17:55:55.932Z,7.20
2017-07-26T17:58:23.431Z,6.95
2017-07-26T18:00:51.012Z,7.57
2017-07-26T18:03:18.580Z,6.72
2017-07-26T18:05:46.857Z,7.25
2017-07-26T18:08:15.162Z,7.22
2017-07-26T18:10:42.714Z,8.02
2017-07-26T18:13:10.242Z,7.28
2017-07-26T18:15:37.771Z,8.30
2017-07-26T18:18:06.111Z,8.88
2017-07-26T18:20:33.645Z,7.03
2017-07-26T18:23:01.923Z,8.60
2017-07-26T18:25:29.521Z,9.27
2017-07-26T18:27:57.150Z,9.20
2017-07-26T18:30:24.642Z,9.20
2017-07-26T18:32:52.163Z,9.20
2017-07-26T18:35:20.411Z,8.20
2017-07-26T18:37:47.961Z,9.07
2017-07-26T18:40:15.499Z,10.20
2017-07-26T18:42:43.061Z,9.07
2017-07-26T18:45:10.650Z,10.20
2017-07-26T18:47:38.172Z,9.23
2017-07-26T18:50:05.754Z,10.25
2017-07-26T18:52:33.279Z,9.60
2017-07-26T18:55:00.782Z,9.75
2017-07-26T18:57:28.320Z,9.00
2017-07-26T18:59:55.840Z,11.57
2017-07-26T19:02:25.109Z,9.93
2017-07-26T19:04:52.642Z,9.02
2017-07-26T19:07:20.233Z,11.25
2017-07-26T19:09:47.740Z,11.98
2017-07-26T19:12:16.404Z,8.90
2017-07-26T19:14:44.700Z,11.65
2017-07-26T19:17:12.241Z,11.05
2017-07-26T19:19:40.536Z,10.40
2017-07-26T19:22:08.077Z,11.38
2017-07-26T19:24:36.399Z,10.82
2017-07-26T19:27:03.957Z,11.88
2017-07-26T19:29:31.574Z,10.55
2017-07-26T19:31:59.067Z,9.93
2017-07-26T19:34:26.617Z,9.68
2017-07-26T19:36:54.127Z,11.20
2017-07-26T19:39:21.647Z,11.98
2017-07-26T19:41:49.342Z,12.20
2017-07-26T19:47:06.200Z,12.02
2017-07-26T19:49:34.065Z,12.25
2017-07-26T19:52:01.681Z,11.75
2017-07-26T19:54:30.410Z,12.20
2017-07-26T19:56:58.834Z,16.80
2017-07-26T19:59:31.094Z,17.33
2017-07-26T20:04:53.659Z,13.85
2017-07-26T20:10:23.731Z,16.87
2017-07-26T20:12:51.290Z,14.57
2017-07-26T20:15:18.871Z,13.15
2017-07-26T20:17:46.387Z,14.23
2017-07-26T20:20:14.771Z,17.50
2017-07-26T20:22:43.183Z,14.65
2017-07-26T20:25:10.713Z,15.77
2017-07-26T20:27:38.237Z,13.38
2017-07-26T20:30:06.849Z,12.98
2017-07-26T20:32:34.370Z,12.07
2017-07-26T20:35:01.940Z,12.95
2017-07-26T20:37:29.477Z,12.65
2017-07-26T20:39:56.984Z,12.65
2017-07-26T20:42:25.701Z,12.02
2017-07-26T20:44:53.365Z,14.00
2017-07-26T20:47:20.913Z,11.77
2017-07-26T20:49:48.414Z,11.57
2017-07-26T20:52:15.913Z,14.10
2017-07-26T20:54:44.231Z,13.52
2017-07-26T20:57:11.732Z,13.75
2017-07-26T20:59:39.245Z,11.90
2017-07-26T21:02:06.790Z,12.63
2017-07-26T21:04:34.530Z,11.25
2017-07-26T21:07:02.023Z,14.50
2017-07-26T21:09:29.567Z,11.00
2017-07-26T21:11:57.075Z,12.13
2017-07-26T21:14:24.571Z,12.85
2017-07-26T21:16:52.162Z,12.77
2017-07-26T21:19:19.892Z,11.18
2017-07-26T21:21:47.402Z,11.68
2017-07-26T21:24:15.033Z,12.25
2017-07-26T21:26:42.606Z,12.57
2017-07-26T21:29:10.099Z,10.90
2017-07-26T21:31:37.732Z,12.35
2017-07-26T21:34:05.461Z,11.75
2017-07-26T21:36:32.954Z,14.23
2017-07-26T21:39:00.454Z,19.12
2017-07-26T21:41:28.771Z,12.07
2017-07-26T21:43:56.278Z,11.85
2017-07-26T21:46:24.725Z,10.40
2017-07-26T21:48:52.229Z,13.82
2017-07-26T21:51:19.716Z,13.98
2017-07-26T21:53:47.211Z,13.43
2017-07-26T21:56:14.729Z,11.15
2017-07-26T21:58:42.229Z,14.00
2017-07-26T22:01:09.793Z,12.05
2017-07-26T22:03:37.357Z,13.18
2017-07-26T22:06:04.840Z,10.93
2017-07-26T22:08:32.422Z,10.93
2017-07-26T22:11:00.673Z,9.95
2017-07-26T22:13:28.187Z,8.93
2017-07-26T22:15:55.685Z,10.90
2017-07-26T22:18:23.199Z,11.07
2017-07-26T22:20:50.708Z,14.98
2017-07-26T22:23:18.237Z,10.93
2017-07-26T22:25:45.777Z,15.68
2017-07-26T22:28:13.267Z,10.40
2017-07-26T22:30:40.798Z,10.30
2017-07-26T22:33:08.318Z,11.82
2017-07-26T22:35:35.831Z,9.88
2017-07-26T22:38:03.316Z,10.82
2017-07-26T22:40:30.827Z,13.98
2017-07-26T22:42:58.324Z,9.43
2017-07-26T22:45:25.906Z,11.80
2017-07-26T22:47:53.415Z,9.48
2017-07-26T22:50:20.916Z,11.30
2017-07-26T22:52:48.415Z,11.93
2017-07-26T22:55:16.093Z,10.68
2017-07-26T22:57:43.681Z,10.27
2017-07-26T23:00:11.220Z,9.70
2017-07-26T23:02:38.886Z,9.52
2017-07-26T23:05:06.447Z,13.07
2017-07-26T23:07:33.963Z,11.93
2017-07-26T23:10:01.481Z,11.65
2017-07-26T23:12:29.021Z,9.95
2017-07-26T23:14:56.965Z,12.23
2017-07-26T23:17:24.582Z,11.40
2017-07-26T23:19:52.097Z,13.62
2017-07-26T23:22:19.620Z,11.32
2017-07-26T23:24:47.117Z,11.15
2017-07-26T23:27:14.646Z,12.70
2017-07-26T23:29:42.154Z,11.95
2017-07-26T23:32:09.636Z,11.20
2017-07-26T23:34:37.165Z,15.20
2017-07-26T23:37:04.810Z,9.63
2017-07-26T23:39:32.330Z,8.35
2017-07-26T23:41:59.868Z,11.40
2017-07-26T23:44:27.392Z,11.95
2017-07-26T23:46:54.895Z,12.77
2017-07-26T23:49:22.385Z,15.10
2017-07-26T23:51:49.901Z,14.98
2017-07-26T23:54:17.407Z,18.80
2017-07-26T23:56:45.001Z,18.50
2017-07-26T23:59:12.506Z,21.25
